sensor_id;sensor_type;location;lat;lon;timestamp;P1;durP1;ratioP1;P2;durP2;ratioP2
1885;SDS011;943;51.568;6.998;2024-02-16T00:01:43;3.40;;;0.70;;
1885;SDS011;943;51.568;6.998;2024-02-16T00:04:11;2.20;;;1.10;;
1885;SDS011;943;51.568;6.998;2024-02-16T00:06:39;2.30;;;0.90;;
1885;SDS011;943;51.568;6.998;2024-02-16T00:09:08;3.13;;;0.90;;
1885;SDS011;943;51.568;6.998;2024-02-16T00:11:38;2.87;;;1.67;;
1885;SDS011;943;51.568;6.998;2024-02-16T00:14:06;4.37;;;2.03;;
1885;SDS011;943;51.568;6.998;2024-02-16T00:16:36;2.30;;;0.90;;
1885;SDS011;943;51.568;6.998;2024-02-16T00:19:05;4.00;;;1.57;;
1885;SDS011;943;51.568;6.998;2024-02-16T00:21:33;2.20;;;0.70;;
1885;SDS011;943;51.568;6.998;2024-02-16T00:24:02;2.30;;;0.80;;
1885;SDS011;943;51.568;6.998;2024-02-16T00:26:33;3.20;;;1.13;;
1885;SDS011;943;51.568;6.998;2024-02-16T00:29:01;2.43;;;1.27;;
1885;SDS011;943;51.568;6.998;2024-02-16T00:31:31;2.97;;;1.20;;
1885;SDS011;943;51.568;6.998;2024-02-16T00:34:00;1.90;;;0.50;;
1885;SDS011;943;51.568;6.998;2024-02-16T00:36:29;2.37;;;0.70;;
1885;SDS011;943;51.568;6.998;2024-02-16T00:39:03;2.40;;;0.80;;
1885;SDS011;943;51.568;6.998;2024-02-16T00:41:32;2.17;;;0.77;;
1885;SDS011;943;51.568;6.998;2024-02-16T00:44:08;2.70;;;1.30;;
1885;SDS011;943;51.568;6.998;2024-02-16T00:46:37;1.90;;;0.67;;
1885;SDS011;943;51.568;6.998;2024-02-16T00:49:06;2.73;;;1.00;;
1885;SDS011;943;51.568;6.998;2024-02-16T00:51:38;2.57;;;0.90;;
1885;SDS011;943;51.568;6.998;2024-02-16T00:54:08;1.90;;;0.53;;
1885;SDS011;943;51.568;6.998;2024-02-16T00:56:37;2.00;;;1.00;;
1885;SDS011;943;51.568;6.998;2024-02-16T00:59:08;2.37;;;0.90;;
1885;SDS011;943;51.568;6.998;2024-02-16T01:01:38;3.63;;;1.00;;
1885;SDS011;943;51.568;6.998;2024-02-16T01:04:06;2.00;;;0.80;;
1885;SDS011;943;51.568;6.998;2024-02-16T01:06:36;1.80;;;0.50;;
1885;SDS011;943;51.568;6.998;2024-02-16T01:09:05;2.27;;;1.13;;
1885;SDS011;943;51.568;6.998;2024-02-16T01:11:34;1.90;;;0.80;;
1885;SDS011;943;51.568;6.998;2024-02-16T01:14:02;2.43;;;1.37;;
1885;SDS011;943;51.568;6.998;2024-02-16T01:16:31;2.93;;;1.00;;
1885;SDS011;943;51.568;6.998;2024-02-16T01:19:00;2.00;;;0.80;;
1885;SDS011;943;51.568;6.998;2024-02-16T01:21:29;4.50;;;1.00;;
1885;SDS011;943;51.568;6.998;2024-02-16T01:23:58;3.33;;;1.37;;
1885;SDS011;943;51.568;6.998;2024-02-16T01:26:29;2.80;;;0.83;;
1885;SDS011;943;51.568;6.998;2024-02-16T01:28:59;3.80;;;0.97;;
1885;SDS011;943;51.568;6.998;2024-02-16T01:31:30;2.80;;;1.10;;
1885;SDS011;943;51.568;6.998;2024-02-16T01:33:58;2.90;;;1.13;;
1885;SDS011;943;51.568;6.998;2024-02-16T01:36:27;2.87;;;1.00;;
1885;SDS011;943;51.568;6.998;2024-02-16T01:38:56;2.40;;;0.93;;
1885;SDS011;943;51.568;6.998;2024-02-16T01:41:24;2.70;;;1.10;;
1885;SDS011;943;51.568;6.998;2024-02-16T01:43:53;2.10;;;0.83;;
1885;SDS011;943;51.568;6.998;2024-02-16T01:46:23;2.23;;;1.00;;
1885;SDS011;943;51.568;6.998;2024-02-16T01:48:53;4.63;;;1.20;;
1885;SDS011;943;51.568;6.998;2024-02-16T01:51:24;4.00;;;1.50;;
1885;SDS011;943;51.568;6.998;2024-02-16T01:53:54;3.63;;;2.00;;
1885;SDS011;943;51.568;6.998;2024-02-16T01:56:24;2.80;;;1.40;;
1885;SDS011;943;51.568;6.998;2024-02-16T01:58:56;3.03;;;1.20;;
1885;SDS011;943;51.568;6.998;2024-02-16T02:01:25;3.23;;;1.60;;
1885;SDS011;943;51.568;6.998;2024-02-16T02:03:54;2.40;;;0.97;;
1885;SDS011;943;51.568;6.998;2024-02-16T02:06:24;4.33;;;1.73;;
1885;SDS011;943;51.568;6.998;2024-02-16T02:08:53;2.90;;;1.47;;
1885;SDS011;943;51.568;6.998;2024-02-16T02:11:21;2.40;;;1.30;;
1885;SDS011;943;51.568;6.998;2024-02-16T02:13:51;2.77;;;1.13;;
1885;SDS011;943;51.568;6.998;2024-02-16T02:16:20;2.97;;;1.47;;
1885;SDS011;943;51.568;6.998;2024-02-16T02:18:50;2.50;;;1.10;;
1885;SDS011;943;51.568;6.998;2024-02-16T02:21:19;2.87;;;1.50;;
1885;SDS011;943;51.568;6.998;2024-02-16T02:23:48;3.40;;;1.27;;
1885;SDS011;943;51.568;6.998;2024-02-16T02:26:16;3.30;;;0.97;;
1885;SDS011;943;51.568;6.998;2024-02-16T02:28:45;2.77;;;0.83;;
1885;SDS011;943;51.568;6.998;2024-02-16T02:31:14;2.00;;;0.77;;
1885;SDS011;943;51.568;6.998;2024-02-16T02:33:43;4.43;;;0.80;;
1885;SDS011;943;51.568;6.998;2024-02-16T02:36:11;3.30;;;1.07;;
1885;SDS011;943;51.568;6.998;2024-02-16T02:38:40;2.97;;;0.87;;
1885;SDS011;943;51.568;6.998;2024-02-16T02:41:08;8.67;;;2.30;;
1885;SDS011;943;51.568;6.998;2024-02-16T02:43:37;3.90;;;1.00;;
1885;SDS011;943;51.568;6.998;2024-02-16T02:46:05;3.00;;;1.03;;
1885;SDS011;943;51.568;6.998;2024-02-16T02:48:35;3.07;;;1.57;;
1885;SDS011;943;51.568;6.998;2024-02-16T02:51:03;2.50;;;1.10;;
1885;SDS011;943;51.568;6.998;2024-02-16T02:53:32;2.13;;;0.87;;
1885;SDS011;943;51.568;6.998;2024-02-16T02:56:01;2.87;;;1.30;;
1885;SDS011;943;51.568;6.998;2024-02-16T02:58:31;2.20;;;1.00;;
1885;SDS011;943;51.568;6.998;2024-02-16T03:00:59;2.17;;;1.00;;
1885;SDS011;943;51.568;6.998;2024-02-16T03:03:28;10.13;;;1.17;;
1885;SDS011;943;51.568;6.998;2024-02-16T03:05:58;1.90;;;0.70;;
1885;SDS011;943;51.568;6.998;2024-02-16T03:08:28;2.20;;;0.90;;
1885;SDS011;943;51.568;6.998;2024-02-16T03:10:56;2.00;;;0.80;;
1885;SDS011;943;51.568;6.998;2024-02-16T03:13:31;2.73;;;1.10;;
1885;SDS011;943;51.568;6.998;2024-02-16T03:16:00;2.93;;;1.00;;
1885;SDS011;943;51.568;6.998;2024-02-16T03:18:33;2.90;;;1.03;;
1885;SDS011;943;51.568;6.998;2024-02-16T03:21:03;2.20;;;0.83;;
1885;SDS011;943;51.568;6.998;2024-02-16T03:23:32;2.87;;;0.90;;
1885;SDS011;943;51.568;6.998;2024-02-16T03:26:00;5.53;;;2.37;;
1885;SDS011;943;51.568;6.998;2024-02-16T03:28:30;2.83;;;1.93;;
1885;SDS011;943;51.568;6.998;2024-02-16T03:30:58;2.53;;;0.83;;
1885;SDS011;943;51.568;6.998;2024-02-16T03:33:27;2.30;;;1.00;;
1885;SDS011;943;51.568;6.998;2024-02-16T03:35:56;2.70;;;1.07;;
1885;SDS011;943;51.568;6.998;2024-02-16T03:38:24;2.40;;;0.93;;
1885;SDS011;943;51.568;6.998;2024-02-16T03:40:55;2.97;;;1.20;;
1885;SDS011;943;51.568;6.998;2024-02-16T03:43:24;2.97;;;1.20;;
1885;SDS011;943;51.568;6.998;2024-02-16T03:45:53;4.80;;;1.40;;
1885;SDS011;943;51.568;6.998;2024-02-16T03:48:21;2.73;;;1.17;;
1885;SDS011;943;51.568;6.998;2024-02-16T03:50:50;3.43;;;2.27;;
1885;SDS011;943;51.568;6.998;2024-02-16T03:53:19;3.17;;;1.00;;
1885;SDS011;943;51.568;6.998;2024-02-16T03:55:47;2.53;;;1.37;;
1885;SDS011;943;51.568;6.998;2024-02-16T03:58:16;2.73;;;1.30;;
1885;SDS011;943;51.568;6.998;2024-02-16T04:00:45;3.87;;;1.83;;
1885;SDS011;943;51.568;6.998;2024-02-16T04:03:14;2.90;;;1.47;;
1885;SDS011;943;51.568;6.998;2024-02-16T04:05:44;5.13;;;1.43;;
1885;SDS011;943;51.568;6.998;2024-02-16T04:08:13;2.87;;;1.00;;
1885;SDS011;943;51.568;6.998;2024-02-16T04:10:41;2.40;;;1.10;;
1885;SDS011;943;51.568;6.998;2024-02-16T04:13:10;3.97;;;1.30;;
1885;SDS011;943;51.568;6.998;2024-02-16T04:15:38;2.40;;;1.13;;
1885;SDS011;943;51.568;6.998;2024-02-16T04:18:07;5.37;;;1.70;;
1885;SDS011;943;51.568;6.998;2024-02-16T04:20:37;4.83;;;1.73;;
1885;SDS011;943;51.568;6.998;2024-02-16T04:23:08;2.47;;;1.00;;
1885;SDS011;943;51.568;6.998;2024-02-16T04:25:37;3.40;;;1.40;;
1885;SDS011;943;51.568;6.998;2024-02-16T04:28:06;2.47;;;1.10;;
1885;SDS011;943;51.568;6.998;2024-02-16T04:30:35;2.60;;;1.10;;
1885;SDS011;943;51.568;6.998;2024-02-16T04:33:04;3.03;;;0.80;;
1885;SDS011;943;51.568;6.998;2024-02-16T04:35:33;2.13;;;0.77;;
1885;SDS011;943;51.568;6.998;2024-02-16T04:38:02;3.63;;;2.43;;
1885;SDS011;943;51.568;6.998;2024-02-16T04:40:33;3.27;;;1.10;;
1885;SDS011;943;51.568;6.998;2024-02-16T04:43:04;2.53;;;1.30;;
1885;SDS011;943;51.568;6.998;2024-02-16T04:45:34;15.53;;;1.13;;
1885;SDS011;943;51.568;6.998;2024-02-16T04:48:04;3.23;;;1.60;;
1885;SDS011;943;51.568;6.998;2024-02-16T04:50:35;3.30;;;2.13;;
1885;SDS011;943;51.568;6.998;2024-02-16T04:53:03;2.20;;;0.90;;
1885;SDS011;943;51.568;6.998;2024-02-16T04:55:32;2.53;;;1.00;;
1885;SDS011;943;51.568;6.998;2024-02-16T04:58:02;3.10;;;1.00;;
1885;SDS011;943;51.568;6.998;2024-02-16T05:00:37;2.50;;;1.10;;
1885;SDS011;943;51.568;6.998;2024-02-16T05:03:06;2.40;;;1.10;;
1885;SDS011;943;51.568;6.998;2024-02-16T05:05:35;2.80;;;1.47;;
1885;SDS011;943;51.568;6.998;2024-02-16T05:08:04;2.57;;;0.80;;
1885;SDS011;943;51.568;6.998;2024-02-16T05:10:33;6.10;;;1.57;;
1885;SDS011;943;51.568;6.998;2024-02-16T05:13:04;3.13;;;1.10;;
1885;SDS011;943;51.568;6.998;2024-02-16T05:15:33;3.70;;;0.83;;
1885;SDS011;943;51.568;6.998;2024-02-16T05:18:01;2.40;;;0.80;;
1885;SDS011;943;51.568;6.998;2024-02-16T05:20:30;8.40;;;2.63;;
1885;SDS011;943;51.568;6.998;2024-02-16T05:22:58;2.60;;;1.30;;
1885;SDS011;943;51.568;6.998;2024-02-16T05:25:27;3.20;;;1.70;;
1885;SDS011;943;51.568;6.998;2024-02-16T05:27:56;2.60;;;0.90;;
1885;SDS011;943;51.568;6.998;2024-02-16T05:30:24;3.10;;;1.13;;
1885;SDS011;943;51.568;6.998;2024-02-16T05:32:53;3.80;;;1.20;;
1885;SDS011;943;51.568;6.998;2024-02-16T05:35:27;2.90;;;1.50;;
1885;SDS011;943;51.568;6.998;2024-02-16T05:38:01;2.83;;;1.07;;
1885;SDS011;943;51.568;6.998;2024-02-16T05:40:59;2.70;;;1.40;;
1885;SDS011;943;51.568;6.998;2024-02-16T05:43:28;3.27;;;1.60;;
1885;SDS011;943;51.568;6.998;2024-02-16T05:45:57;4.13;;;1.43;;
1885;SDS011;943;51.568;6.998;2024-02-16T05:48:25;5.20;;;3.33;;
1885;SDS011;943;51.568;6.998;2024-02-16T05:51:00;4.73;;;1.30;;
1885;SDS011;943;51.568;6.998;2024-02-16T05:53:30;7.40;;;1.40;;
1885;SDS011;943;51.568;6.998;2024-02-16T05:56:03;3.30;;;1.10;;
1885;SDS011;943;51.568;6.998;2024-02-16T05:58:34;2.77;;;1.20;;
1885;SDS011;943;51.568;6.998;2024-02-16T06:01:05;2.73;;;1.03;;
1885;SDS011;943;51.568;6.998;2024-02-16T06:03:44;3.07;;;1.57;;
1885;SDS011;943;51.568;6.998;2024-02-16T06:06:13;2.97;;;0.90;;
1885;SDS011;943;51.568;6.998;2024-02-16T06:08:42;6.83;;;1.40;;
1885;SDS011;943;51.568;6.998;2024-02-16T06:11:10;4.50;;;2.90;;
1885;SDS011;943;51.568;6.998;2024-02-16T06:13:39;2.73;;;1.60;;
1885;SDS011;943;51.568;6.998;2024-02-16T06:16:08;2.87;;;1.23;;
1885;SDS011;943;51.568;6.998;2024-02-16T06:18:36;3.63;;;1.63;;
1885;SDS011;943;51.568;6.998;2024-02-16T06:21:06;3.93;;;1.40;;
1885;SDS011;943;51.568;6.998;2024-02-16T06:23:34;2.30;;;1.03;;
1885;SDS011;943;51.568;6.998;2024-02-16T06:26:05;3.20;;;1.80;;
1885;SDS011;943;51.568;6.998;2024-02-16T06:28:35;2.43;;;0.90;;
1885;SDS011;943;51.568;6.998;2024-02-16T06:31:04;4.10;;;1.40;;
1885;SDS011;943;51.568;6.998;2024-02-16T06:33:33;2.87;;;1.23;;
1885;SDS011;943;51.568;6.998;2024-02-16T06:36:01;2.30;;;1.10;;
1885;SDS011;943;51.568;6.998;2024-02-16T06:38:30;3.40;;;1.63;;
1885;SDS011;943;51.568;6.998;2024-02-16T06:40:59;4.50;;;1.03;;
1885;SDS011;943;51.568;6.998;2024-02-16T06:43:29;2.40;;;1.10;;
1885;SDS011;943;51.568;6.998;2024-02-16T06:45:59;3.67;;;1.23;;
1885;SDS011;943;51.568;6.998;2024-02-16T06:48:27;3.43;;;1.53;;
1885;SDS011;943;51.568;6.998;2024-02-16T06:50:56;2.07;;;0.90;;
1885;SDS011;943;51.568;6.998;2024-02-16T06:53:24;2.40;;;1.40;;
1885;SDS011;943;51.568;6.998;2024-02-16T06:55:53;4.10;;;1.33;;
1885;SDS011;943;51.568;6.998;2024-02-16T06:58:22;4.13;;;1.30;;
1885;SDS011;943;51.568;6.998;2024-02-16T07:00:52;2.40;;;1.00;;
1885;SDS011;943;51.568;6.998;2024-02-16T07:03:20;2.10;;;0.83;;
1885;SDS011;943;51.568;6.998;2024-02-16T07:05:51;2.83;;;1.50;;
1885;SDS011;943;51.568;6.998;2024-02-16T07:08:20;3.50;;;2.10;;
1885;SDS011;943;51.568;6.998;2024-02-16T07:10:54;2.67;;;1.07;;
1885;SDS011;943;51.568;6.998;2024-02-16T07:13:24;2.20;;;0.90;;
1885;SDS011;943;51.568;6.998;2024-02-16T07:15:53;2.63;;;1.37;;
1885;SDS011;943;51.568;6.998;2024-02-16T07:18:21;2.93;;;1.43;;
1885;SDS011;943;51.568;6.998;2024-02-16T07:20:50;10.13;;;1.27;;
1885;SDS011;943;51.568;6.998;2024-02-16T07:23:18;3.07;;;1.20;;
1885;SDS011;943;51.568;6.998;2024-02-16T07:25:48;2.60;;;1.93;;
1885;SDS011;943;51.568;6.998;2024-02-16T07:28:27;2.30;;;1.10;;
1885;SDS011;943;51.568;6.998;2024-02-16T07:30:55;3.87;;;1.30;;
1885;SDS011;943;51.568;6.998;2024-02-16T07:33:24;2.63;;;1.13;;
1885;SDS011;943;51.568;6.998;2024-02-16T07:35:56;3.50;;;2.50;;
1885;SDS011;943;51.568;6.998;2024-02-16T07:38:26;6.70;;;1.80;;
1885;SDS011;943;51.568;6.998;2024-02-16T07:40:56;4.23;;;2.30;;
1885;SDS011;943;51.568;6.998;2024-02-16T07:43:26;3.73;;;1.10;;
1885;SDS011;943;51.568;6.998;2024-02-16T07:45:55;3.27;;;1.63;;
1885;SDS011;943;51.568;6.998;2024-02-16T07:48:24;4.00;;;1.23;;
1885;SDS011;943;51.568;6.998;2024-02-16T07:50:54;2.90;;;1.40;;
1885;SDS011;943;51.568;6.998;2024-02-16T07:53:31;2.63;;;1.47;;
1885;SDS011;943;51.568;6.998;2024-02-16T07:56:01;3.03;;;1.20;;
1885;SDS011;943;51.568;6.998;2024-02-16T07:58:31;2.50;;;1.30;;
1885;SDS011;943;51.568;6.998;2024-02-16T08:01:00;4.80;;;1.93;;
1885;SDS011;943;51.568;6.998;2024-02-16T08:03:28;2.17;;;0.90;;
1885;SDS011;943;51.568;6.998;2024-02-16T08:05:57;8.37;;;1.83;;
1885;SDS011;943;51.568;6.998;2024-02-16T08:08:27;3.30;;;1.37;;
1885;SDS011;943;51.568;6.998;2024-02-16T08:10:57;7.27;;;2.10;;
1885;SDS011;943;51.568;6.998;2024-02-16T08:13:29;5.13;;;2.20;;
1885;SDS011;943;51.568;6.998;2024-02-16T08:15:58;6.70;;;1.97;;
1885;SDS011;943;51.568;6.998;2024-02-16T08:18:26;3.17;;;1.63;;
1885;SDS011;943;51.568;6.998;2024-02-16T08:20:59;4.43;;;2.87;;
1885;SDS011;943;51.568;6.998;2024-02-16T08:23:28;3.90;;;1.80;;
1885;SDS011;943;51.568;6.998;2024-02-16T08:25:58;3.70;;;1.27;;
1885;SDS011;943;51.568;6.998;2024-02-16T08:28:28;2.60;;;1.10;;
1885;SDS011;943;51.568;6.998;2024-02-16T08:30:57;4.03;;;1.57;;
1885;SDS011;943;51.568;6.998;2024-02-16T08:33:25;3.47;;;1.93;;
1885;SDS011;943;51.568;6.998;2024-02-16T08:35:55;3.33;;;1.30;;
1885;SDS011;943;51.568;6.998;2024-02-16T08:38:24;2.70;;;1.70;;
1885;SDS011;943;51.568;6.998;2024-02-16T08:40:52;3.23;;;1.63;;
1885;SDS011;943;51.568;6.998;2024-02-16T08:43:21;3.63;;;1.17;;
1885;SDS011;943;51.568;6.998;2024-02-16T08:45:49;2.20;;;0.80;;
1885;SDS011;943;51.568;6.998;2024-02-16T08:48:17;3.13;;;1.03;;
1885;SDS011;943;51.568;6.998;2024-02-16T08:50:46;3.30;;;1.60;;
1885;SDS011;943;51.568;6.998;2024-02-16T08:53:16;6.60;;;1.00;;
1885;SDS011;943;51.568;6.998;2024-02-16T08:55:45;2.67;;;1.63;;
1885;SDS011;943;51.568;6.998;2024-02-16T08:58:14;3.20;;;1.07;;
1885;SDS011;943;51.568;6.998;2024-02-16T09:00:42;2.60;;;1.37;;
1885;SDS011;943;51.568;6.998;2024-02-16T09:03:13;3.80;;;1.63;;
1885;SDS011;943;51.568;6.998;2024-02-16T09:05:48;2.73;;;0.90;;
1885;SDS011;943;51.568;6.998;2024-02-16T09:08:17;4.73;;;2.60;;
1885;SDS011;943;51.568;6.998;2024-02-16T09:10:46;2.60;;;1.13;;
1885;SDS011;943;51.568;6.998;2024-02-16T09:13:14;4.10;;;1.30;;
1885;SDS011;943;51.568;6.998;2024-02-16T09:15:59;3.17;;;1.40;;
1885;SDS011;943;51.568;6.998;2024-02-16T09:18:33;3.27;;;1.53;;
1885;SDS011;943;51.568;6.998;2024-02-16T09:21:02;5.50;;;1.53;;
1885;SDS011;943;51.568;6.998;2024-02-16T09:23:32;2.20;;;0.80;;
1885;SDS011;943;51.568;6.998;2024-02-16T09:26:04;2.70;;;1.27;;
1885;SDS011;943;51.568;6.998;2024-02-16T09:28:32;4.03;;;1.80;;
1885;SDS011;943;51.568;6.998;2024-02-16T09:31:13;4.63;;;2.10;;
1885;SDS011;943;51.568;6.998;2024-02-16T09:33:43;2.67;;;1.60;;
1885;SDS011;943;51.568;6.998;2024-02-16T09:36:12;5.43;;;1.70;;
1885;SDS011;943;51.568;6.998;2024-02-16T09:38:40;4.03;;;1.07;;
1885;SDS011;943;51.568;6.998;2024-02-16T09:41:09;6.63;;;1.40;;
1885;SDS011;943;51.568;6.998;2024-02-16T09:43:38;2.60;;;1.00;;
1885;SDS011;943;51.568;6.998;2024-02-16T09:46:08;4.37;;;1.07;;
1885;SDS011;943;51.568;6.998;2024-02-16T09:48:39;2.20;;;0.90;;
1885;SDS011;943;51.568;6.998;2024-02-16T09:51:20;4.27;;;3.20;;
1885;SDS011;943;51.568;6.998;2024-02-16T09:53:50;5.80;;;2.30;;
1885;SDS011;943;51.568;6.998;2024-02-16T09:56:25;2.30;;;1.10;;
1885;SDS011;943;51.568;6.998;2024-02-16T09:58:54;4.70;;;1.93;;
1885;SDS011;943;51.568;6.998;2024-02-16T10:01:23;3.23;;;1.20;;
1885;SDS011;943;51.568;6.998;2024-02-16T10:03:52;9.10;;;1.40;;
1885;SDS011;943;51.568;6.998;2024-02-16T10:06:21;3.13;;;1.00;;
1885;SDS011;943;51.568;6.998;2024-02-16T10:08:52;2.20;;;1.07;;
1885;SDS011;943;51.568;6.998;2024-02-16T10:11:25;2.30;;;1.00;;
1885;SDS011;943;51.568;6.998;2024-02-16T10:14:01;8.33;;;1.47;;
1885;SDS011;943;51.568;6.998;2024-02-16T10:16:31;2.67;;;1.20;;
1885;SDS011;943;51.568;6.998;2024-02-16T10:19:05;2.40;;;1.20;;
1885;SDS011;943;51.568;6.998;2024-02-16T10:21:43;2.87;;;1.40;;
1885;SDS011;943;51.568;6.998;2024-02-16T10:24:11;3.80;;;1.27;;
1885;SDS011;943;51.568;6.998;2024-02-16T10:26:49;2.30;;;0.90;;
1885;SDS011;943;51.568;6.998;2024-02-16T10:29:18;3.73;;;1.17;;
1885;SDS011;943;51.568;6.998;2024-02-16T10:31:54;4.10;;;1.50;;
1885;SDS011;943;51.568;6.998;2024-02-16T10:34:24;3.93;;;1.63;;
1885;SDS011;943;51.568;6.998;2024-02-16T10:36:56;2.20;;;1.00;;
1885;SDS011;943;51.568;6.998;2024-02-16T10:39:28;3.60;;;1.53;;
1885;SDS011;943;51.568;6.998;2024-02-16T10:42:00;4.17;;;1.30;;
1885;SDS011;943;51.568;6.998;2024-02-16T10:44:32;2.57;;;1.33;;
1885;SDS011;943;51.568;6.998;2024-02-16T10:47:03;6.60;;;1.47;;
1885;SDS011;943;51.568;6.998;2024-02-16T10:49:33;3.30;;;1.10;;
1885;SDS011;943;51.568;6.998;2024-02-16T10:52:01;3.30;;;1.67;;
1885;SDS011;943;51.568;6.998;2024-02-16T10:54:34;13.73;;;1.47;;
1885;SDS011;943;51.568;6.998;2024-02-16T10:57:07;2.90;;;1.37;;
1885;SDS011;943;51.568;6.998;2024-02-16T10:59:43;4.33;;;2.37;;
1885;SDS011;943;51.568;6.998;2024-02-16T11:02:23;3.80;;;1.57;;
1885;SDS011;943;51.568;6.998;2024-02-16T11:04:55;2.43;;;1.00;;
1885;SDS011;943;51.568;6.998;2024-02-16T11:07:24;4.53;;;1.10;;
1885;SDS011;943;51.568;6.998;2024-02-16T11:09:53;3.53;;;1.33;;
1885;SDS011;943;51.568;6.998;2024-02-16T11:12:26;3.70;;;1.43;;
1885;SDS011;943;51.568;6.998;2024-02-16T11:15:03;3.10;;;1.50;;
1885;SDS011;943;51.568;6.998;2024-02-16T11:17:36;3.17;;;1.93;;
1885;SDS011;943;51.568;6.998;2024-02-16T11:20:06;3.10;;;1.53;;
1885;SDS011;943;51.568;6.998;2024-02-16T11:22:36;3.60;;;1.37;;
1885;SDS011;943;51.568;6.998;2024-02-16T11:25:08;5.30;;;1.90;;
1885;SDS011;943;51.568;6.998;2024-02-16T11:27:38;2.53;;;1.23;;
1885;SDS011;943;51.568;6.998;2024-02-16T11:30:10;2.20;;;1.20;;
1885;SDS011;943;51.568;6.998;2024-02-16T11:32:41;3.03;;;1.80;;
1885;SDS011;943;51.568;6.998;2024-02-16T11:35:13;3.63;;;1.50;;
1885;SDS011;943;51.568;6.998;2024-02-16T11:37:44;4.93;;;2.50;;
1885;SDS011;943;51.568;6.998;2024-02-16T11:40:15;4.93;;;1.50;;
1885;SDS011;943;51.568;6.998;2024-02-16T11:42:44;7.30;;;4.33;;
1885;SDS011;943;51.568;6.998;2024-02-16T11:45:15;3.57;;;2.03;;
1885;SDS011;943;51.568;6.998;2024-02-16T11:47:44;2.70;;;1.60;;
1885;SDS011;943;51.568;6.998;2024-02-16T11:50:13;4.27;;;2.10;;
1885;SDS011;943;51.568;6.998;2024-02-16T11:52:46;2.90;;;1.60;;
1885;SDS011;943;51.568;6.998;2024-02-16T11:55:19;4.50;;;2.30;;
1885;SDS011;943;51.568;6.998;2024-02-16T11:57:49;5.23;;;1.80;;
1885;SDS011;943;51.568;6.998;2024-02-16T12:00:19;2.83;;;1.03;;
1885;SDS011;943;51.568;6.998;2024-02-16T12:02:58;4.23;;;1.77;;
1885;SDS011;943;51.568;6.998;2024-02-16T12:05:29;4.70;;;2.73;;
1885;SDS011;943;51.568;6.998;2024-02-16T12:07:58;5.87;;;1.60;;
1885;SDS011;943;51.568;6.998;2024-02-16T12:10:28;6.60;;;2.07;;
1885;SDS011;943;51.568;6.998;2024-02-16T12:12:57;5.00;;;2.07;;
1885;SDS011;943;51.568;6.998;2024-02-16T12:15:31;5.60;;;2.37;;
1885;SDS011;943;51.568;6.998;2024-02-16T12:18:00;4.00;;;2.03;;
1885;SDS011;943;51.568;6.998;2024-02-16T12:20:30;3.40;;;1.70;;
1885;SDS011;943;51.568;6.998;2024-02-16T12:23:10;3.00;;;1.60;;
1885;SDS011;943;51.568;6.998;2024-02-16T12:25:41;9.27;;;3.40;;
1885;SDS011;943;51.568;6.998;2024-02-16T12:28:09;3.63;;;1.70;;
1885;SDS011;943;51.568;6.998;2024-02-16T12:30:38;5.20;;;2.50;;
1885;SDS011;943;51.568;6.998;2024-02-16T12:33:08;4.87;;;3.20;;
1885;SDS011;943;51.568;6.998;2024-02-16T12:35:37;4.90;;;3.43;;
1885;SDS011;943;51.568;6.998;2024-02-16T12:38:05;4.00;;;3.10;;
1885;SDS011;943;51.568;6.998;2024-02-16T12:40:35;3.80;;;2.00;;
1885;SDS011;943;51.568;6.998;2024-02-16T12:43:04;14.00;;;2.20;;
1885;SDS011;943;51.568;6.998;2024-02-16T12:45:35;4.50;;;3.20;;
1885;SDS011;943;51.568;6.998;2024-02-16T12:48:05;8.13;;;2.50;;
1885;SDS011;943;51.568;6.998;2024-02-16T12:50:37;5.10;;;2.67;;
1885;SDS011;943;51.568;6.998;2024-02-16T12:53:10;8.70;;;2.80;;
1885;SDS011;943;51.568;6.998;2024-02-16T12:55:39;3.40;;;2.33;;
1885;SDS011;943;51.568;6.998;2024-02-16T12:58:09;4.67;;;3.17;;
1885;SDS011;943;51.568;6.998;2024-02-16T13:00:38;3.90;;;2.47;;
1885;SDS011;943;51.568;6.998;2024-02-16T13:03:07;4.67;;;2.53;;
1885;SDS011;943;51.568;6.998;2024-02-16T13:05:36;5.33;;;3.80;;
1885;SDS011;943;51.568;6.998;2024-02-16T13:08:06;4.80;;;1.97;;
1885;SDS011;943;51.568;6.998;2024-02-16T13:10:36;5.00;;;2.10;;
1885;SDS011;943;51.568;6.998;2024-02-16T13:13:05;6.37;;;4.77;;
1885;SDS011;943;51.568;6.998;2024-02-16T13:15:33;4.90;;;2.50;;
1885;SDS011;943;51.568;6.998;2024-02-16T13:18:02;4.10;;;1.83;;
1885;SDS011;943;51.568;6.998;2024-02-16T13:20:40;6.13;;;3.10;;
1885;SDS011;943;51.568;6.998;2024-02-16T13:23:16;5.03;;;3.20;;
1885;SDS011;943;51.568;6.998;2024-02-16T13:25:49;5.93;;;2.53;;
1885;SDS011;943;51.568;6.998;2024-02-16T13:28:17;7.40;;;3.60;;
1885;SDS011;943;51.568;6.998;2024-02-16T13:30:48;5.77;;;2.50;;
1885;SDS011;943;51.568;6.998;2024-02-16T13:33:18;6.30;;;3.00;;
1885;SDS011;943;51.568;6.998;2024-02-16T13:35:47;9.30;;;3.60;;
1885;SDS011;943;51.568;6.998;2024-02-16T13:38:16;6.60;;;3.47;;
1885;SDS011;943;51.568;6.998;2024-02-16T13:40:45;8.70;;;3.67;;
1885;SDS011;943;51.568;6.998;2024-02-16T13:43:16;8.10;;;5.00;;
1885;SDS011;943;51.568;6.998;2024-02-16T13:45:49;4.30;;;3.53;;
1885;SDS011;943;51.568;6.998;2024-02-16T13:48:22;5.13;;;3.57;;
1885;SDS011;943;51.568;6.998;2024-02-16T13:50:51;9.70;;;4.20;;
1885;SDS011;943;51.568;6.998;2024-02-16T13:53:23;6.43;;;3.90;;
1885;SDS011;943;51.568;6.998;2024-02-16T13:55:52;5.40;;;2.73;;
1885;SDS011;943;51.568;6.998;2024-02-16T13:58:26;3.60;;;2.57;;
1885;SDS011;943;51.568;6.998;2024-02-16T14:00:56;6.60;;;3.17;;
1885;SDS011;943;51.568;6.998;2024-02-16T14:03:26;5.87;;;3.00;;
1885;SDS011;943;51.568;6.998;2024-02-16T14:05:55;5.67;;;2.83;;
1885;SDS011;943;51.568;6.998;2024-02-16T14:08:24;7.50;;;4.27;;
1885;SDS011;943;51.568;6.998;2024-02-16T14:10:55;6.20;;;3.90;;
1885;SDS011;943;51.568;6.998;2024-02-16T14:13:24;5.17;;;3.27;;
1885;SDS011;943;51.568;6.998;2024-02-16T14:16:00;10.07;;;5.13;;
1885;SDS011;943;51.568;6.998;2024-02-16T14:18:33;7.17;;;2.77;;
1885;SDS011;943;51.568;6.998;2024-02-16T14:21:11;5.77;;;3.30;;
1885;SDS011;943;51.568;6.998;2024-02-16T14:23:44;9.43;;;4.03;;
1885;SDS011;943;51.568;6.998;2024-02-16T14:26:17;6.77;;;3.70;;
1885;SDS011;943;51.568;6.998;2024-02-16T14:28:55;5.70;;;3.63;;
1885;SDS011;943;51.568;6.998;2024-02-16T14:31:28;7.70;;;4.00;;
1885;SDS011;943;51.568;6.998;2024-02-16T14:34:02;5.70;;;3.60;;
1885;SDS011;943;51.568;6.998;2024-02-16T14:36:35;9.03;;;3.00;;
1885;SDS011;943;51.568;6.998;2024-02-16T14:39:04;4.43;;;3.23;;
1885;SDS011;943;51.568;6.998;2024-02-16T14:41:32;5.53;;;3.07;;
1885;SDS011;943;51.568;6.998;2024-02-16T14:44:01;5.90;;;2.63;;
1885;SDS011;943;51.568;6.998;2024-02-16T14:46:33;5.17;;;3.10;;
1885;SDS011;943;51.568;6.998;2024-02-16T14:49:03;6.70;;;2.90;;
1885;SDS011;943;51.568;6.998;2024-02-16T14:51:40;6.53;;;3.07;;
1885;SDS011;943;51.568;6.998;2024-02-16T14:54:11;5.10;;;3.63;;
1885;SDS011;943;51.568;6.998;2024-02-16T14:56:39;6.27;;;3.23;;
1885;SDS011;943;51.568;6.998;2024-02-16T14:59:09;5.53;;;3.13;;
1885;SDS011;943;51.568;6.998;2024-02-16T15:01:39;6.60;;;4.00;;
1885;SDS011;943;51.568;6.998;2024-02-16T15:04:08;6.07;;;2.53;;
1885;SDS011;943;51.568;6.998;2024-02-16T15:06:37;7.67;;;3.23;;
1885;SDS011;943;51.568;6.998;2024-02-16T15:09:07;6.60;;;3.33;;
1885;SDS011;943;51.568;6.998;2024-02-16T15:11:39;7.50;;;3.43;;
1885;SDS011;943;51.568;6.998;2024-02-16T15:14:09;6.10;;;2.70;;
1885;SDS011;943;51.568;6.998;2024-02-16T15:16:44;8.90;;;2.77;;
1885;SDS011;943;51.568;6.998;2024-02-16T15:19:13;4.47;;;2.80;;
1885;SDS011;943;51.568;6.998;2024-02-16T15:21:42;3.80;;;2.83;;
1885;SDS011;943;51.568;6.998;2024-02-16T15:24:11;4.17;;;2.73;;
1885;SDS011;943;51.568;6.998;2024-02-16T15:26:40;4.43;;;2.30;;
1885;SDS011;943;51.568;6.998;2024-02-16T15:29:10;5.00;;;3.10;;
1885;SDS011;943;51.568;6.998;2024-02-16T15:31:38;5.50;;;4.00;;
1885;SDS011;943;51.568;6.998;2024-02-16T15:34:08;5.80;;;2.80;;
1885;SDS011;943;51.568;6.998;2024-02-16T15:36:42;5.30;;;2.17;;
1885;SDS011;943;51.568;6.998;2024-02-16T15:39:11;7.87;;;2.90;;
1885;SDS011;943;51.568;6.998;2024-02-16T15:41:40;3.53;;;2.53;;
1885;SDS011;943;51.568;6.998;2024-02-16T15:44:10;5.20;;;3.87;;
1885;SDS011;943;51.568;6.998;2024-02-16T15:46:39;2.83;;;1.30;;
1885;SDS011;943;51.568;6.998;2024-02-16T15:49:12;4.53;;;2.20;;